Saint Peters, Missouri
Current Conditions -  °F | °C
As of 2:54 PM on Tuesday 25 Nov 2014 (Local Time) from KSUS Reporting Station
Clear Clear  
Wind Chill: 36°   Ceiling: Unl
Heat Index: 40°   Visibility: 10mi
Dew Point: 22°   Wind: 6mph
Humidity: 49%   Direction: 280°W
Pressure: 30.15"   Gusts: NA
Location:  38.8°N, 90.63°W
Report Text: KSUS 252054Z 28005KT 10SM CLR 04/M06 A3015 RMK AO2 SLP216 T00441056 56018
Loading
Personal Weather Stations






























Interactive Weather Map New forecast layout! Learn more

10-Day Weather Forecast

Advertisements
Track Severe Weather on mobile